Villas de San Francisco, Puerto Rico
Current Conditions -  °F | °C
As of 7:56 PM on Monday 22 Dec 2014 (Local Time) from TJSJ Reporting Station
Few Clouds Few Clouds  
Wind Chill: 79°   Ceiling: Unl
Heat Index: 82°   Visibility: 10mi
Dew Point: 73°   Wind: 7mph
Humidity: 82%   Direction: 100°E
Pressure: 30.01"   Gusts: NA
Location:  18.3878°N, 66.0742°W
Report Text: TJSJ 222356Z 10006KT 10SM FEW032 26/23 A3001 RMK AO2 SLP162 T02610228 10294 20256 53012
Loading
Personal Weather Stations






























Interactive Weather Map New forecast layout! Learn more

10-Day Weather Forecast

Advertisements
Track Severe Weather on mobile